createdAt,value
2018-05-23T00:00:10.789Z,16.50
2018-05-23T00:02:43.411Z,16.40
2018-05-23T00:05:16.019Z,16.50
2018-05-23T00:07:48.617Z,16.40
2018-05-23T00:10:21.028Z,16.40
2018-05-23T00:12:54.361Z,16.40
2018-05-23T00:15:27.013Z,16.40
2018-05-23T00:18:00.383Z,16.40
2018-05-23T00:20:32.795Z,16.40
2018-05-23T00:23:05.245Z,16.40
2018-05-23T00:25:38.559Z,16.40
2018-05-23T00:28:11.876Z,16.40
2018-05-23T00:30:44.368Z,16.40
2018-05-23T00:33:17.807Z,16.40
2018-05-23T00:35:50.302Z,16.40
2018-05-23T00:38:23.718Z,16.30
2018-05-23T00:40:56.182Z,16.30
2018-05-23T00:43:28.702Z,16.30
2018-05-23T00:46:02.052Z,16.20
2018-05-23T00:48:36.107Z,16.20
2018-05-23T00:51:08.866Z,16.10
2018-05-23T00:53:41.340Z,16.10
2018-05-23T00:56:13.846Z,16.10
2018-05-23T00:58:47.979Z,16.00
2018-05-23T01:01:20.788Z,15.90
2018-05-23T01:03:54.020Z,15.90
2018-05-23T01:06:26.736Z,15.80
2018-05-23T01:08:59.181Z,15.80
2018-05-23T01:11:31.637Z,15.80
2018-05-23T01:14:04.924Z,15.80
2018-05-23T01:16:37.477Z,15.70
2018-05-23T01:19:10.991Z,15.70
2018-05-23T01:21:44.967Z,15.70
2018-05-23T01:24:17.799Z,15.70
2018-05-23T01:26:51.209Z,15.70
2018-05-23T01:29:23.739Z,15.70
2018-05-23T01:31:56.266Z,15.70
2018-05-23T01:34:28.714Z,15.60
2018-05-23T01:37:02.095Z,15.60
2018-05-23T01:39:34.570Z,15.60
2018-05-23T01:42:06.974Z,15.50
2018-05-23T01:44:40.219Z,15.50
2018-05-23T01:47:13.683Z,15.40
2018-05-23T01:49:46.340Z,15.40
2018-05-23T01:52:18.941Z,15.40
2018-05-23T01:54:51.417Z,15.40
2018-05-23T01:57:24.802Z,15.30
2018-05-23T01:59:57.253Z,15.30
2018-05-23T02:02:29.762Z,15.30
2018-05-23T02:05:02.233Z,15.20
2018-05-23T02:07:35.537Z,15.20
2018-05-23T02:10:08.387Z,15.20
2018-05-23T02:12:40.908Z,15.20
2018-05-23T02:15:13.440Z,15.10
2018-05-23T02:17:46.903Z,15.10
2018-05-23T02:20:20.189Z,15.10
2018-05-23T02:22:52.771Z,15.10
2018-05-23T02:25:25.297Z,15.00
2018-05-23T02:27:58.574Z,15.10
2018-05-23T02:30:31.389Z,15.10
2018-05-23T02:33:03.935Z,15.10
2018-05-23T02:35:37.003Z,15.10
2018-05-23T02:38:10.364Z,15.10
2018-05-23T02:40:44.321Z,15.20
2018-05-23T02:43:17.220Z,15.20
2018-05-23T02:45:49.703Z,15.20
2018-05-23T02:48:22.248Z,15.20
2018-05-23T02:50:55.640Z,15.20
2018-05-23T02:53:28.089Z,15.20
2018-05-23T02:56:01.492Z,15.20
2018-05-23T02:58:34.801Z,15.30
2018-05-23T03:01:07.451Z,15.30
2018-05-23T03:03:40.763Z,15.30
2018-05-23T03:06:13.332Z,15.20
2018-05-23T03:08:46.698Z,15.20
2018-05-23T03:11:20.053Z,15.20
2018-05-23T03:13:52.356Z,15.20
2018-05-23T03:16:25.170Z,15.20
2018-05-23T03:18:58.043Z,15.20
2018-05-23T03:21:30.556Z,15.20
2018-05-23T03:24:04.753Z,15.20
2018-05-23T03:26:37.520Z,15.20
2018-05-23T03:29:10.831Z,15.20
2018-05-23T03:31:44.975Z,15.10
2018-05-23T03:34:18.558Z,15.00
2018-05-23T03:36:51.259Z,15.00
2018-05-23T03:39:24.653Z,15.00
2018-05-23T03:41:57.983Z,14.90
2018-05-23T03:44:30.635Z,14.90
2018-05-23T03:47:03.922Z,14.80
2018-05-23T03:49:37.377Z,14.80
2018-05-23T03:52:10.051Z,14.80
2018-05-23T03:54:42.571Z,14.80
2018-05-23T03:57:16.601Z,14.80
2018-05-23T04:00:07.821Z,14.80
2018-05-23T04:06:07.447Z,14.70
2018-05-23T04:08:39.821Z,14.70
2018-05-23T04:11:12.543Z,14.70
2018-05-23T04:13:45.076Z,14.80
2018-05-23T04:16:17.637Z,14.80
2018-05-23T04:18:51.728Z,14.90
2018-05-23T04:21:25.406Z,14.90
2018-05-23T04:23:58.363Z,14.90
2018-05-23T04:26:31.697Z,15.00
2018-05-23T04:29:04.206Z,15.00
2018-05-23T04:31:37.561Z,15.10
2018-05-23T04:34:10.889Z,15.20
2018-05-23T04:36:44.167Z,15.30
2018-05-23T04:39:17.033Z,15.40
2018-05-23T04:41:50.270Z,15.40
2018-05-23T04:44:23.633Z,15.50
2018-05-23T04:46:56.244Z,15.50
2018-05-23T04:49:28.759Z,15.60
2018-05-23T04:52:02.201Z,15.60
2018-05-23T04:54:36.342Z,15.70
2018-05-23T04:57:10.021Z,15.70
2018-05-23T04:59:42.684Z,15.80
2018-05-23T05:02:15.342Z,15.80
2018-05-23T05:04:47.730Z,15.80
2018-05-23T05:07:21.515Z,15.90
2018-05-23T05:09:54.531Z,15.90
2018-05-23T05:12:26.936Z,16.00
2018-05-23T05:14:59.943Z,16.10
2018-05-23T05:17:32.929Z,16.10
2018-05-23T05:20:05.371Z,16.20
2018-05-23T05:22:38.003Z,16.20
2018-05-23T05:25:10.445Z,16.30
2018-05-23T05:27:43.887Z,16.30
2018-05-23T05:30:17.123Z,16.30
2018-05-23T05:32:49.948Z,16.40
2018-05-23T05:35:23.443Z,16.40
2018-05-23T05:37:56.109Z,16.40
2018-05-23T05:40:28.608Z,16.50
2018-05-23T05:43:01.130Z,16.60
2018-05-23T05:45:33.710Z,16.60
2018-05-23T05:48:07.081Z,16.70
2018-05-23T05:50:40.313Z,16.90
2018-05-23T05:53:13.044Z,16.90
2018-05-23T05:55:47.168Z,17.10
2018-05-23T05:58:20.620Z,17.30
2018-05-23T06:00:53.384Z,17.20
2018-05-23T06:03:25.883Z,17.40
2018-05-23T06:05:59.191Z,17.50
2018-05-23T06:08:32.467Z,17.70
2018-05-23T06:11:06.564Z,18.00
2018-05-23T06:13:39.199Z,18.00
2018-05-23T06:16:11.661Z,18.20
2018-05-23T06:18:45.155Z,18.40
2018-05-23T06:21:17.706Z,18.60
2018-05-23T06:23:50.245Z,18.90
2018-05-23T06:26:22.662Z,19.20
2018-05-23T06:28:55.150Z,19.40
2018-05-23T06:31:27.653Z,19.70
2018-05-23T06:34:00.120Z,19.80
2018-05-23T06:36:32.781Z,20.00
2018-05-23T06:39:05.539Z,20.10
2018-05-23T06:41:38.083Z,20.20
2018-05-23T06:44:11.334Z,20.60
2018-05-23T06:46:43.993Z,20.60
2018-05-23T06:49:18.092Z,21.40
2018-05-23T06:51:50.857Z,21.30
2018-05-23T06:54:23.306Z,21.70
2018-05-23T06:56:56.533Z,22.10
2018-05-23T06:59:29.201Z,22.10
2018-05-23T07:02:01.587Z,22.20
2018-05-23T07:04:34.072Z,22.40
2018-05-23T07:07:09.557Z,23.60
2018-05-23T07:09:44.260Z,24.10
2018-05-23T07:12:17.989Z,24.60
2018-05-23T07:14:50.816Z,24.60
2018-05-23T07:17:23.248Z,25.00
2018-05-23T07:19:55.682Z,25.50
2018-05-23T07:22:28.270Z,25.70
2018-05-23T07:25:01.653Z,25.60
2018-05-23T07:27:35.775Z,25.20
2018-05-23T07:30:08.571Z,25.10
2018-05-23T07:32:41.036Z,24.80
2018-05-23T07:35:14.564Z,24.40
2018-05-23T07:37:48.604Z,24.40
2018-05-23T07:40:21.553Z,24.40
2018-05-23T07:42:54.906Z,24.40
2018-05-23T07:45:27.566Z,24.40
2018-05-23T07:48:00.239Z,24.70
2018-05-23T07:50:33.391Z,24.90
2018-05-23T07:53:06.115Z,24.90
2018-05-23T07:55:38.619Z,25.10
2018-05-23T07:58:12.729Z,25.80
2018-05-23T08:00:45.456Z,25.80
2018-05-23T08:03:17.879Z,26.30
2018-05-23T08:05:51.172Z,27.00
2018-05-23T08:08:23.799Z,27.00
2018-05-23T08:10:57.146Z,27.30
2018-05-23T08:13:29.666Z,27.60
2018-05-23T08:16:02.814Z,27.80
2018-05-23T08:18:35.576Z,27.70
2018-05-23T08:21:08.170Z,27.80
2018-05-23T08:23:42.190Z,27.90
2018-05-23T08:26:15.019Z,27.90
2018-05-23T08:28:48.272Z,28.00
2018-05-23T08:31:21.399Z,28.20
2018-05-23T08:33:54.802Z,28.20
2018-05-23T08:36:27.672Z,28.20
2018-05-23T08:39:00.107Z,28.20
2018-05-23T08:41:33.590Z,28.20
2018-05-23T08:44:06.034Z,28.30
2018-05-23T08:46:38.472Z,28.30
2018-05-23T08:49:12.564Z,28.60
2018-05-23T08:51:45.108Z,28.50
2018-05-23T08:54:17.572Z,28.70
2018-05-23T08:56:51.118Z,28.90
2018-05-23T08:59:25.185Z,29.30
2018-05-23T09:01:58.932Z,29.50
2018-05-23T09:04:32.141Z,29.50
2018-05-23T09:07:05.424Z,29.40
2018-05-23T09:09:37.909Z,29.40
2018-05-23T09:12:11.396Z,29.40
2018-05-23T09:14:43.835Z,29.60
2018-05-23T09:17:17.108Z,29.50
2018-05-23T09:19:49.579Z,29.30
2018-05-23T09:22:22.046Z,29.20
2018-05-23T09:24:54.504Z,28.80
2018-05-23T09:27:27.900Z,28.60
2018-05-23T09:30:00.303Z,28.60
2018-05-23T09:32:33.497Z,28.70
2018-05-23T09:35:06.241Z,28.60
2018-05-23T09:37:39.737Z,28.70
2018-05-23T09:40:12.905Z,29.00
2018-05-23T09:42:45.600Z,29.00
2018-05-23T09:45:18.015Z,28.90
2018-05-23T09:47:50.499Z,28.30
2018-05-23T09:50:23.106Z,27.50
2018-05-23T09:52:55.795Z,26.90
2018-05-23T09:55:28.295Z,26.80
2018-05-23T09:58:00.857Z,26.90
2018-05-23T10:00:33.243Z,27.00
2018-05-23T10:03:07.659Z,27.10
2018-05-23T10:05:40.243Z,27.30
2018-05-23T10:08:12.785Z,27.50
2018-05-23T10:10:45.449Z,27.80
2018-05-23T10:13:17.875Z,28.00
2018-05-23T10:15:50.961Z,28.00
2018-05-23T10:18:23.938Z,27.90
2018-05-23T10:20:56.542Z,28.00
2018-05-23T10:23:29.864Z,28.00
2018-05-23T10:26:02.336Z,28.10
2018-05-23T10:28:34.933Z,28.30
2018-05-23T10:31:08.466Z,28.40
2018-05-23T10:33:42.533Z,28.60
2018-05-23T10:36:15.281Z,28.60
2018-05-23T10:38:48.657Z,28.60
2018-05-23T10:41:22.070Z,28.40
2018-05-23T10:43:54.733Z,28.40
2018-05-23T10:46:27.296Z,28.10
2018-05-23T10:49:01.429Z,27.50
2018-05-23T10:51:34.987Z,27.40
2018-05-23T10:54:07.556Z,27.30
2018-05-23T10:56:40.031Z,27.20
2018-05-23T10:59:13.453Z,27.00
2018-05-23T11:01:46.666Z,27.00
2018-05-23T11:04:20.041Z,26.80
2018-05-23T11:06:52.570Z,26.60
2018-05-23T11:09:25.114Z,26.30
2018-05-23T11:11:58.409Z,26.00
2018-05-23T11:14:31.092Z,25.90
2018-05-23T11:17:03.562Z,25.90
2018-05-23T11:19:36.125Z,25.70
2018-05-23T11:22:09.505Z,25.40
2018-05-23T11:24:42.786Z,24.90
2018-05-23T11:27:15.652Z,24.90
2018-05-23T11:29:48.978Z,24.90
2018-05-23T11:32:22.223Z,24.90
2018-05-23T11:34:55.770Z,24.80
2018-05-23T11:37:29.201Z,24.60
2018-05-23T11:40:09.541Z,24.40
2018-05-23T11:42:41.987Z,24.30
2018-05-23T11:45:15.437Z,24.20
2018-05-23T11:47:48.753Z,24.30
2018-05-23T11:50:21.324Z,24.30
2018-05-23T11:52:54.503Z,24.20
2018-05-23T11:55:28.164Z,24.20
2018-05-23T11:58:00.729Z,24.10
2018-05-23T12:00:33.915Z,24.10
2018-05-23T12:03:06.495Z,24.10
2018-05-23T12:05:39.623Z,23.90
2018-05-23T12:08:12.319Z,23.90
2018-05-23T12:10:45.638Z,23.80
2018-05-23T12:13:18.125Z,23.80
2018-05-23T12:15:51.513Z,23.70
2018-05-23T12:18:24.883Z,23.80
2018-05-23T12:20:57.420Z,23.80
2018-05-23T12:23:31.496Z,23.80
2018-05-23T12:26:04.373Z,23.80
2018-05-23T12:28:37.715Z,23.90
2018-05-23T12:31:12.034Z,23.90
2018-05-23T12:33:45.380Z,23.90
2018-05-23T12:36:18.516Z,23.90
2018-05-23T12:38:52.545Z,23.90
2018-05-23T12:41:25.368Z,23.90
2018-05-23T12:43:58.620Z,23.80
2018-05-23T12:46:32.825Z,23.80
2018-05-23T12:49:05.564Z,23.80
2018-05-23T12:51:39.011Z,23.80
2018-05-23T12:54:12.564Z,23.90
2018-05-23T12:56:45.678Z,23.90
2018-05-23T12:59:19.119Z,23.90
2018-05-23T13:01:53.199Z,23.90
2018-05-23T13:04:25.900Z,23.80
2018-05-23T13:06:59.434Z,23.80
2018-05-23T13:09:33.556Z,23.90
2018-05-23T13:12:06.067Z,23.90
2018-05-23T13:14:39.567Z,23.90
2018-05-23T13:17:12.776Z,23.90
2018-05-23T13:19:45.533Z,23.90
2018-05-23T13:22:17.980Z,24.00
2018-05-23T13:24:52.501Z,24.00
2018-05-23T13:27:25.807Z,24.00
2018-05-23T13:29:58.634Z,23.90
2018-05-23T13:32:32.007Z,24.00
2018-05-23T13:35:05.099Z,24.10
2018-05-23T13:37:37.820Z,24.20
2018-05-23T13:40:10.992Z,24.20
2018-05-23T13:42:44.293Z,24.30
2018-05-23T13:45:17.624Z,24.30
2018-05-23T13:47:50.149Z,24.40
2018-05-23T13:50:23.599Z,24.30
2018-05-23T13:52:57.382Z,24.30
2018-05-23T13:55:30.298Z,24.30
2018-05-23T13:58:03.323Z,24.30
2018-05-23T14:00:35.791Z,24.30
2018-05-23T14:03:09.665Z,24.30
2018-05-23T14:05:42.962Z,24.30
2018-05-23T14:08:15.458Z,24.30
2018-05-23T14:10:47.965Z,24.40
2018-05-23T14:13:21.375Z,24.40
2018-05-23T14:15:54.864Z,24.40
2018-05-23T14:18:28.926Z,24.30
2018-05-23T14:21:01.620Z,24.40
2018-05-23T14:23:34.933Z,24.30
2018-05-23T14:26:07.394Z,24.30
2018-05-23T14:28:40.760Z,24.40
2018-05-23T14:31:14.938Z,24.50
2018-05-23T14:33:47.610Z,24.40
2018-05-23T14:36:20.201Z,24.50
2018-05-23T14:38:52.767Z,24.50
2018-05-23T14:41:25.297Z,24.50
2018-05-23T14:43:58.546Z,24.50
2018-05-23T14:46:32.037Z,24.50
2018-05-23T14:49:05.557Z,24.50
2018-05-23T14:51:38.841Z,24.50
2018-05-23T14:54:12.300Z,24.50
2018-05-23T14:56:44.981Z,24.50
2018-05-23T14:59:18.285Z,24.40
2018-05-23T15:01:50.913Z,24.40
2018-05-23T15:04:23.667Z,24.40
2018-05-23T15:06:56.181Z,24.30
2018-05-23T15:09:28.650Z,24.30
2018-05-23T15:12:01.204Z,24.30
2018-05-23T15:14:35.277Z,24.20
2018-05-23T15:17:08.064Z,24.20
2018-05-23T15:19:41.438Z,24.10
2018-05-23T15:22:16.625Z,24.00
2018-05-23T15:24:50.189Z,23.90
2018-05-23T15:27:22.812Z,23.90
2018-05-23T15:29:55.331Z,23.80
2018-05-23T15:32:28.595Z,23.70
2018-05-23T15:35:01.248Z,23.70
2018-05-23T15:37:34.649Z,23.70
2018-05-23T15:40:07.231Z,23.70
2018-05-23T15:42:40.667Z,23.60
2018-05-23T15:45:14.065Z,23.60
2018-05-23T15:47:47.428Z,23.60
2018-05-23T15:50:20.187Z,23.60
2018-05-23T15:52:53.562Z,23.60
2018-05-23T15:55:25.977Z,23.60
2018-05-23T15:57:58.631Z,23.50
2018-05-23T16:00:31.999Z,23.50
2018-05-23T16:03:05.561Z,23.50
2018-05-23T16:05:37.926Z,23.50
2018-05-23T16:08:10.591Z,23.40
2018-05-23T16:10:43.891Z,23.40
2018-05-23T16:13:16.535Z,23.40
2018-05-23T16:15:49.893Z,23.30
2018-05-23T16:18:23.255Z,23.30
2018-05-23T16:20:56.102Z,23.30
2018-05-23T16:23:29.316Z,23.30
2018-05-23T16:26:02.614Z,23.30
2018-05-23T16:28:35.843Z,23.20
2018-05-23T16:31:08.458Z,23.20
2018-05-23T16:33:41.678Z,23.20
2018-05-23T16:36:14.226Z,23.20
2018-05-23T16:38:47.721Z,23.30
2018-05-23T16:41:20.227Z,23.20
2018-05-23T16:43:53.642Z,23.20
2018-05-23T16:46:26.055Z,23.30
2018-05-23T16:48:59.443Z,23.30
2018-05-23T16:51:33.526Z,23.30
2018-05-23T16:54:06.196Z,23.30
2018-05-23T16:56:38.903Z,23.30
2018-05-23T16:59:12.465Z,23.30
2018-05-23T17:01:45.711Z,23.30
2018-05-23T17:04:19.099Z,23.30
2018-05-23T17:06:52.407Z,23.20
2018-05-23T17:09:25.877Z,23.20
2018-05-23T17:11:59.692Z,23.10
2018-05-23T17:14:32.143Z,23.10
2018-05-23T17:17:04.529Z,23.10
2018-05-23T17:19:37.876Z,23.10
2018-05-23T17:22:10.429Z,23.00
2018-05-23T17:24:42.936Z,23.00
2018-05-23T17:27:16.288Z,23.00
2018-05-23T17:29:49.040Z,23.00
2018-05-23T17:32:22.459Z,22.90
2018-05-23T17:34:55.267Z,22.90
2018-05-23T17:37:28.590Z,22.80
2018-05-23T17:40:01.047Z,22.80
2018-05-23T17:42:34.333Z,22.80
2018-05-23T17:45:06.960Z,22.70
2018-05-23T17:47:40.254Z,22.60
2018-05-23T17:50:13.640Z,22.60
2018-05-23T17:52:46.306Z,22.50
2018-05-23T17:55:18.796Z,22.50
2018-05-23T17:57:51.302Z,22.50
2018-05-23T18:00:23.777Z,22.40
2018-05-23T18:02:56.336Z,22.30
2018-05-23T18:05:29.592Z,22.30
2018-05-23T18:08:02.981Z,22.20
2018-05-23T18:10:36.286Z,22.00
2018-05-23T18:13:08.772Z,21.90
2018-05-23T18:15:41.245Z,21.70
2018-05-23T18:18:13.862Z,21.50
2018-05-23T18:20:47.827Z,21.00
2018-05-23T18:23:20.694Z,21.00
2018-05-23T18:25:53.970Z,20.80
2018-05-23T18:28:26.432Z,20.60
2018-05-23T18:30:59.733Z,20.40
2018-05-23T18:33:32.215Z,20.00
2018-05-23T18:36:04.874Z,19.60
2018-05-23T18:38:37.368Z,19.20
2018-05-23T18:41:09.885Z,18.80
2018-05-23T18:43:42.484Z,18.40
2018-05-23T18:46:14.933Z,18.10
2018-05-23T18:48:48.386Z,17.70
2018-05-23T18:51:20.774Z,17.50
2018-05-23T18:53:54.933Z,17.20
2018-05-23T18:56:28.035Z,17.20
2018-05-23T18:59:01.810Z,17.00
2018-05-23T19:01:34.592Z,17.00
2018-05-23T19:04:07.151Z,17.00
2018-05-23T19:06:40.485Z,17.00
2018-05-23T19:09:13.785Z,16.90
2018-05-23T19:11:51.117Z,16.90
2018-05-23T19:14:23.898Z,17.00
2018-05-23T19:16:57.794Z,16.90
2018-05-23T19:19:31.492Z,16.90
2018-05-23T19:22:05.506Z,16.90
2018-05-23T19:24:39.389Z,16.90
2018-05-23T19:27:12.517Z,16.90
2018-05-23T19:29:46.717Z,16.90
2018-05-23T19:32:20.080Z,16.80
2018-05-23T19:34:53.163Z,16.80
2018-05-23T19:37:27.233Z,16.80
2018-05-23T19:40:01.353Z,16.80
2018-05-23T19:42:35.711Z,16.70
2018-05-23T19:45:10.744Z,16.70
2018-05-23T19:47:45.178Z,16.70
2018-05-23T19:50:19.657Z,16.70
2018-05-23T19:52:53.096Z,16.70
2018-05-23T19:55:26.593Z,16.70
2018-05-23T19:58:02.022Z,16.70
2018-05-23T20:00:36.570Z,16.80
2018-05-23T20:03:11.230Z,16.70
2018-05-23T20:05:44.851Z,16.70
2018-05-23T20:08:20.979Z,16.70
2018-05-23T20:10:55.920Z,16.70
2018-05-23T20:13:30.014Z,16.70
2018-05-23T20:16:03.902Z,16.70
2018-05-23T20:18:37.337Z,16.70
2018-05-23T20:21:10.847Z,16.70
2018-05-23T20:23:43.888Z,16.80
2018-05-23T20:26:18.863Z,16.70
2018-05-23T20:28:52.093Z,16.80
2018-05-23T20:31:24.898Z,16.80
2018-05-23T20:33:59.093Z,16.70
2018-05-23T20:36:31.712Z,16.70
2018-05-23T20:39:04.858Z,16.70
2018-05-23T20:41:37.256Z,16.70
2018-05-23T20:44:10.638Z,16.70
2018-05-23T20:46:43.956Z,16.70
2018-05-23T20:49:17.271Z,16.70
2018-05-23T20:51:50.634Z,16.70
2018-05-23T20:54:24.005Z,16.70
2018-05-23T20:56:56.704Z,16.70
2018-05-23T20:59:30.213Z,16.80
2018-05-23T21:02:03.550Z,16.80
2018-05-23T21:04:36.784Z,16.80
2018-05-23T21:07:10.658Z,16.80
2018-05-23T21:09:43.282Z,16.70
2018-05-23T21:12:17.334Z,16.80
2018-05-23T21:14:49.837Z,16.80
2018-05-23T21:17:23.846Z,16.80
2018-05-23T21:19:57.140Z,16.80
2018-05-23T21:22:30.769Z,16.80
2018-05-23T21:25:04.220Z,16.80
2018-05-23T21:27:37.566Z,16.90
2018-05-23T21:30:10.928Z,16.90
2018-05-23T21:32:44.319Z,16.80
2018-05-23T21:35:16.862Z,16.80
2018-05-23T21:37:49.406Z,16.90
2018-05-23T21:40:22.776Z,16.90
2018-05-23T21:42:56.009Z,16.90
2018-05-23T21:45:28.510Z,16.90
2018-05-23T21:48:00.997Z,16.90
2018-05-23T21:50:34.460Z,16.90
2018-05-23T21:53:08.272Z,16.90
2018-05-23T21:55:41.882Z,16.90
2018-05-23T21:58:15.535Z,16.90
2018-05-23T22:00:48.187Z,16.90
2018-05-23T22:03:20.770Z,16.90
2018-05-23T22:05:53.255Z,16.90
2018-05-23T22:08:25.662Z,16.90
2018-05-23T22:10:59.026Z,16.90
2018-05-23T22:13:32.690Z,16.90
2018-05-23T22:16:05.733Z,16.90
2018-05-23T22:18:38.445Z,16.90
2018-05-23T22:21:11.780Z,16.90
2018-05-23T22:23:44.809Z,16.90
2018-05-23T22:26:18.068Z,16.90
2018-05-23T22:28:52.085Z,16.80
2018-05-23T22:31:24.929Z,16.80
2018-05-23T22:33:57.516Z,16.80
2018-05-23T22:36:31.751Z,16.70
2018-05-23T22:39:04.659Z,16.70
2018-05-23T22:41:38.045Z,16.70
2018-05-23T22:44:10.595Z,16.70
2018-05-23T22:46:43.239Z,16.70
2018-05-23T22:49:17.359Z,16.60
2018-05-23T22:51:50.010Z,16.60
2018-05-23T22:54:24.048Z,16.60
2018-05-23T22:56:56.635Z,16.60
2018-05-23T22:59:29.021Z,16.50
2018-05-23T23:02:01.512Z,16.50
2018-05-23T23:04:34.109Z,16.50
2018-05-23T23:07:07.237Z,16.40
2018-05-23T23:09:39.862Z,16.40
2018-05-23T23:12:12.499Z,16.40
2018-05-23T23:14:45.725Z,16.30
2018-05-23T23:17:18.185Z,16.30
2018-05-23T23:19:50.971Z,16.20
2018-05-23T23:22:37.901Z,16.20
2018-05-23T23:25:11.290Z,16.20
2018-05-23T23:27:44.437Z,16.10
2018-05-23T23:30:17.492Z,16.10
2018-05-23T23:32:51.547Z,16.10
2018-05-23T23:35:24.462Z,16.00
2018-05-23T23:37:56.872Z,16.00
2018-05-23T23:40:29.350Z,16.00
2018-05-23T23:43:02.724Z,15.90
2018-05-23T23:45:35.189Z,15.90
2018-05-23T23:48:08.542Z,15.80
2018-05-23T23:50:41.312Z,15.80
2018-05-23T23:53:14.658Z,15.80
2018-05-23T23:55:47.192Z,15.80
2018-05-23T23:58:21.199Z,15.80
